首页
METAR-TAF:

METAR-TAF

机场 :

倫敦希斯路機場, 英格兰

纬度: 51-29N, 经度: 000-27W, 海拔: 24米

当前天气观测

该预报发布于44分钟前的21:20 UTC
风速8节,风向西南,在西转西南之间变化
温度 11°C
湿度 94%
气压 1006 hPa
能见度10公里或以上

METAR: EGLL 152120Z AUTO 22008KT 170V250 9999 NCD 11/10 Q1006 NOSIG

时间: 23:04 (22:04 UTC)

预报

该预报发布于5小时和9分钟前的16:55 UTC
预报有效从15日的 18点(UTC)到 16日的 24点(UTC)
风速6节,风向西南
能见度10公里或以上
少量云层高于3000英尺
成为
从 16日的 00点(UTC)到 16日的 03点(UTC)
风速12节,风向南转南东
能見度: 7000
多云层高于1000英尺
小雨
几率 40% :
短暂存在
从 16日的 02点(UTC)到 16日的 08点(UTC)
能見度: 3500
多云层高于600英尺
雨, 毛毛雨
成为
从 16日的 07点(UTC)到 16日的 10点(UTC)
风速10节,风向西转西南
能见度10公里或以上
散云层高于3000英尺
成为
从 16日的 17点(UTC)到 16日的 20点(UTC)
风速4节,风向

TAF: EGLL 151655Z 1518/1624 22006KT 9999 FEW030 BECMG 1600/1603 15012KT 7000 -RA BKN010 PROB40 TEMPO 1602/1608 3500 RADZ BKN006 BECMG 1607/1610 24010KT 9999 NSW SCT030 BECMG 1617/1620 18004KT

超过4000个机场的气象观测和天气预报(METAR&TAF报告)。

可查询的气象台以黄色和红色小点在地图上表示。

将鼠标移到小点上方,可查看气象台名称。

然后点击查看天气观测和预报。

如需切换地图:点击带黑十字的绿色按钮放大地图;点击带横线的绿色按钮缩小地图;或者点击绿色箭头查看邻近地区的地图。


METAR-TAF: